sensor_id;sensor_type;location;lat;lon;timestamp;temperature;humidity
38488;DHT22;57384;51.986;4.458;2023-03-23T00:01:03;12.90;79.90
38488;DHT22;57384;51.986;4.458;2023-03-23T00:03:50;12.90;79.80
38488;DHT22;57384;51.986;4.458;2023-03-23T00:06:34;12.90;79.80
38488;DHT22;57384;51.986;4.458;2023-03-23T00:09:18;12.80;79.80
38488;DHT22;57384;51.986;4.458;2023-03-23T00:12:02;12.80;79.80
38488;DHT22;57384;51.986;4.458;2023-03-23T00:14:47;12.80;79.80
38488;DHT22;57384;51.986;4.458;2023-03-23T00:17:32;12.80;79.80
38488;DHT22;57384;51.986;4.458;2023-03-23T00:20:16;12.90;79.90
38488;DHT22;57384;51.986;4.458;2023-03-23T00:23:00;12.90;79.80
38488;DHT22;57384;51.986;4.458;2023-03-23T00:25:48;12.80;79.80
38488;DHT22;57384;51.986;4.458;2023-03-23T00:28:32;12.90;79.90
38488;DHT22;57384;51.986;4.458;2023-03-23T00:31:16;12.90;79.90
38488;DHT22;57384;51.986;4.458;2023-03-23T00:34:01;12.90;79.90
38488;DHT22;57384;51.986;4.458;2023-03-23T00:36:46;12.90;79.90
38488;DHT22;57384;51.986;4.458;2023-03-23T00:39:31;12.90;79.80
38488;DHT22;57384;51.986;4.458;2023-03-23T00:42:15;12.90;79.90
38488;DHT22;57384;51.986;4.458;2023-03-23T00:44:59;12.90;79.90
38488;DHT22;57384;51.986;4.458;2023-03-23T00:47:43;12.90;79.80
38488;DHT22;57384;51.986;4.458;2023-03-23T00:50:28;12.80;79.80
38488;DHT22;57384;51.986;4.458;2023-03-23T00:53:12;12.90;79.90
38488;DHT22;57384;51.986;4.458;2023-03-23T00:55:56;12.80;79.80
38488;DHT22;57384;51.986;4.458;2023-03-23T00:58:40;12.80;79.80
38488;DHT22;57384;51.986;4.458;2023-03-23T01:01:25;12.90;79.90
38488;DHT22;57384;51.986;4.458;2023-03-23T01:04:09;12.80;79.80
38488;DHT22;57384;51.986;4.458;2023-03-23T01:06:53;12.80;79.90
38488;DHT22;57384;51.986;4.458;2023-03-23T01:09:38;12.80;79.80
38488;DHT22;57384;51.986;4.458;2023-03-23T01:12:22;12.80;79.80
38488;DHT22;57384;51.986;4.458;2023-03-23T01:15:06;12.80;79.80
38488;DHT22;57384;51.986;4.458;2023-03-23T01:17:51;12.80;79.80
38488;DHT22;57384;51.986;4.458;2023-03-23T01:20:35;12.80;79.90
38488;DHT22;57384;51.986;4.458;2023-03-23T01:23:20;12.80;79.80
38488;DHT22;57384;51.986;4.458;2023-03-23T01:26:05;12.80;79.80
38488;DHT22;57384;51.986;4.458;2023-03-23T01:28:49;12.80;79.80
38488;DHT22;57384;51.986;4.458;2023-03-23T01:31:34;12.80;79.80
38488;DHT22;57384;51.986;4.458;2023-03-23T01:34:18;12.80;79.80
38488;DHT22;57384;51.986;4.458;2023-03-23T01:37:02;12.80;79.80
38488;DHT22;57384;51.986;4.458;2023-03-23T01:39:46;12.80;79.80
38488;DHT22;57384;51.986;4.458;2023-03-23T01:42:32;12.80;79.90
38488;DHT22;57384;51.986;4.458;2023-03-23T01:48:12;12.80;79.90
38488;DHT22;57384;51.986;4.458;2023-03-23T01:50:59;12.80;79.80
38488;DHT22;57384;51.986;4.458;2023-03-23T01:53:51;12.80;79.80
38488;DHT22;57384;51.986;4.458;2023-03-23T01:56:38;12.80;79.80
38488;DHT22;57384;51.986;4.458;2023-03-23T01:59:24;12.80;79.80
38488;DHT22;57384;51.986;4.458;2023-03-23T02:02:09;12.80;79.80
38488;DHT22;57384;51.986;4.458;2023-03-23T02:04:55;12.80;79.90
38488;DHT22;57384;51.986;4.458;2023-03-23T02:07:40;12.80;79.80
38488;DHT22;57384;51.986;4.458;2023-03-23T02:10:26;12.80;79.80
38488;DHT22;57384;51.986;4.458;2023-03-23T02:13:10;12.70;79.80
38488;DHT22;57384;51.986;4.458;2023-03-23T02:18:49;12.80;79.90
38488;DHT22;57384;51.986;4.458;2023-03-23T02:30:37;12.80;79.80
38488;DHT22;57384;51.986;4.458;2023-03-23T02:33:36;12.80;79.90
38488;DHT22;57384;51.986;4.458;2023-03-23T02:39:10;12.80;79.90
38488;DHT22;57384;51.986;4.458;2023-03-23T02:41:58;12.70;79.80
38488;DHT22;57384;51.986;4.458;2023-03-23T02:44:43;12.70;79.80
38488;DHT22;57384;51.986;4.458;2023-03-23T02:47:27;12.70;79.80
38488;DHT22;57384;51.986;4.458;2023-03-23T02:50:14;12.70;79.90
38488;DHT22;57384;51.986;4.458;2023-03-23T02:52:58;12.70;79.80
38488;DHT22;57384;51.986;4.458;2023-03-23T02:55:44;12.80;79.90
38488;DHT22;57384;51.986;4.458;2023-03-23T02:58:28;12.70;79.90
38488;DHT22;57384;51.986;4.458;2023-03-23T03:01:14;12.80;79.90
38488;DHT22;57384;51.986;4.458;2023-03-23T03:04:01;12.70;79.80
38488;DHT22;57384;51.986;4.458;2023-03-23T03:09:55;12.80;79.90
38488;DHT22;57384;51.986;4.458;2023-03-23T03:12:46;12.80;79.90
38488;DHT22;57384;51.986;4.458;2023-03-23T03:15:37;12.80;79.90
38488;DHT22;57384;51.986;4.458;2023-03-23T03:18:24;12.80;79.90
38488;DHT22;57384;51.986;4.458;2023-03-23T03:21:12;12.80;79.90
38488;DHT22;57384;51.986;4.458;2023-03-23T03:23:58;12.80;79.90
38488;DHT22;57384;51.986;4.458;2023-03-23T03:26:45;12.80;79.90
38488;DHT22;57384;51.986;4.458;2023-03-23T03:29:30;12.80;79.90
38488;DHT22;57384;51.986;4.458;2023-03-23T03:32:17;12.80;80.00
38488;DHT22;57384;51.986;4.458;2023-03-23T03:35:02;12.80;79.90
38488;DHT22;57384;51.986;4.458;2023-03-23T03:37:46;12.80;79.90
38488;DHT22;57384;51.986;4.458;2023-03-23T03:40:31;12.80;80.60
38488;DHT22;57384;51.986;4.458;2023-03-23T03:43:15;12.70;79.90
38488;DHT22;57384;51.986;4.458;2023-03-23T03:45:59;12.70;80.00
38488;DHT22;57384;51.986;4.458;2023-03-23T03:48:43;12.80;80.00
38488;DHT22;57384;51.986;4.458;2023-03-23T03:51:28;12.70;80.00
38488;DHT22;57384;51.986;4.458;2023-03-23T03:54:12;12.80;80.10
38488;DHT22;57384;51.986;4.458;2023-03-23T03:56:57;12.70;80.00
38488;DHT22;57384;51.986;4.458;2023-03-23T03:59:41;12.80;80.00
38488;DHT22;57384;51.986;4.458;2023-03-23T04:02:25;12.60;80.00
38488;DHT22;57384;51.986;4.458;2023-03-23T04:05:10;12.70;80.00
38488;DHT22;57384;51.986;4.458;2023-03-23T04:07:54;12.70;80.10
38488;DHT22;57384;51.986;4.458;2023-03-23T04:10:38;12.70;80.10
38488;DHT22;57384;51.986;4.458;2023-03-23T04:13:22;12.60;80.10
38488;DHT22;57384;51.986;4.458;2023-03-23T04:16:07;12.70;80.20
38488;DHT22;57384;51.986;4.458;2023-03-23T04:18:51;12.60;80.10
38488;DHT22;57384;51.986;4.458;2023-03-23T04:21:35;12.60;80.10
38488;DHT22;57384;51.986;4.458;2023-03-23T04:24:20;12.60;80.10
38488;DHT22;57384;51.986;4.458;2023-03-23T04:27:04;12.60;80.20
38488;DHT22;57384;51.986;4.458;2023-03-23T04:29:48;12.60;80.20
38488;DHT22;57384;51.986;4.458;2023-03-23T04:32:32;12.60;80.20
38488;DHT22;57384;51.986;4.458;2023-03-23T04:35:18;12.60;80.20
38488;DHT22;57384;51.986;4.458;2023-03-23T04:38:02;12.60;80.20
38488;DHT22;57384;51.986;4.458;2023-03-23T04:40:46;12.60;80.20
38488;DHT22;57384;51.986;4.458;2023-03-23T04:43:31;12.60;80.20
38488;DHT22;57384;51.986;4.458;2023-03-23T04:46:15;12.60;80.20
38488;DHT22;57384;51.986;4.458;2023-03-23T04:48:59;12.60;80.20
38488;DHT22;57384;51.986;4.458;2023-03-23T04:51:43;12.60;80.20
38488;DHT22;57384;51.986;4.458;2023-03-23T04:54:27;12.50;80.10
38488;DHT22;57384;51.986;4.458;2023-03-23T04:57:12;12.50;80.20
38488;DHT22;57384;51.986;4.458;2023-03-23T04:59:57;12.50;80.20
38488;DHT22;57384;51.986;4.458;2023-03-23T05:02:42;12.50;80.20
38488;DHT22;57384;51.986;4.458;2023-03-23T05:05:26;12.50;80.20
38488;DHT22;57384;51.986;4.458;2023-03-23T05:08:10;12.50;80.20
38488;DHT22;57384;51.986;4.458;2023-03-23T05:10:58;12.50;80.20
38488;DHT22;57384;51.986;4.458;2023-03-23T05:13:42;12.50;80.20
38488;DHT22;57384;51.986;4.458;2023-03-23T05:16:26;12.50;80.20
38488;DHT22;57384;51.986;4.458;2023-03-23T05:19:10;12.50;80.20
38488;DHT22;57384;51.986;4.458;2023-03-23T05:21:57;12.50;80.20
38488;DHT22;57384;51.986;4.458;2023-03-23T05:24:41;12.50;80.20
38488;DHT22;57384;51.986;4.458;2023-03-23T05:27:25;12.50;80.20
38488;DHT22;57384;51.986;4.458;2023-03-23T05:30:10;12.40;80.20
38488;DHT22;57384;51.986;4.458;2023-03-23T05:32:54;12.50;80.20
38488;DHT22;57384;51.986;4.458;2023-03-23T05:35:38;12.40;80.20
38488;DHT22;57384;51.986;4.458;2023-03-23T05:38:22;12.40;80.20
38488;DHT22;57384;51.986;4.458;2023-03-23T05:41:07;12.50;80.30
38488;DHT22;57384;51.986;4.458;2023-03-23T05:43:51;12.50;80.30
38488;DHT22;57384;51.986;4.458;2023-03-23T05:46:35;12.40;80.20
38488;DHT22;57384;51.986;4.458;2023-03-23T05:49:20;12.40;80.20
38488;DHT22;57384;51.986;4.458;2023-03-23T05:52:04;12.40;80.20
38488;DHT22;57384;51.986;4.458;2023-03-23T05:54:48;12.40;80.20
38488;DHT22;57384;51.986;4.458;2023-03-23T05:57:32;12.40;80.20
38488;DHT22;57384;51.986;4.458;2023-03-23T06:00:17;12.40;80.20
38488;DHT22;57384;51.986;4.458;2023-03-23T06:03:01;12.40;80.20
38488;DHT22;57384;51.986;4.458;2023-03-23T06:05:45;12.40;80.20
38488;DHT22;57384;51.986;4.458;2023-03-23T06:08:30;12.40;80.20
38488;DHT22;57384;51.986;4.458;2023-03-23T06:11:14;12.40;80.20
38488;DHT22;57384;51.986;4.458;2023-03-23T06:13:58;12.40;80.20
38488;DHT22;57384;51.986;4.458;2023-03-23T06:16:42;12.30;80.10
38488;DHT22;57384;51.986;4.458;2023-03-23T06:19:26;12.40;80.20
38488;DHT22;57384;51.986;4.458;2023-03-23T06:22:11;12.30;80.20
38488;DHT22;57384;51.986;4.458;2023-03-23T06:24:55;12.30;80.20
38488;DHT22;57384;51.986;4.458;2023-03-23T06:27:39;12.30;80.20
38488;DHT22;57384;51.986;4.458;2023-03-23T06:30:24;12.30;80.10
38488;DHT22;57384;51.986;4.458;2023-03-23T06:33:08;12.40;80.20
38488;DHT22;57384;51.986;4.458;2023-03-23T06:35:52;12.30;80.10
38488;DHT22;57384;51.986;4.458;2023-03-23T06:38:36;12.30;80.10
38488;DHT22;57384;51.986;4.458;2023-03-23T06:41:20;12.30;80.10
38488;DHT22;57384;51.986;4.458;2023-03-23T06:44:05;12.30;80.10
38488;DHT22;57384;51.986;4.458;2023-03-23T06:46:49;12.40;80.20
38488;DHT22;57384;51.986;4.458;2023-03-23T06:49:33;12.30;80.10
38488;DHT22;57384;51.986;4.458;2023-03-23T06:52:23;12.30;80.20
38488;DHT22;57384;51.986;4.458;2023-03-23T06:55:07;12.30;80.20
38488;DHT22;57384;51.986;4.458;2023-03-23T06:57:51;12.30;80.20
38488;DHT22;57384;51.986;4.458;2023-03-23T07:00:36;12.30;80.20
38488;DHT22;57384;51.986;4.458;2023-03-23T07:03:20;12.30;80.20
38488;DHT22;57384;51.986;4.458;2023-03-23T07:06:04;12.30;80.20
38488;DHT22;57384;51.986;4.458;2023-03-23T07:08:49;12.30;80.10
38488;DHT22;57384;51.986;4.458;2023-03-23T07:11:33;12.30;80.40
38488;DHT22;57384;51.986;4.458;2023-03-23T07:14:17;12.30;80.20
38488;DHT22;57384;51.986;4.458;2023-03-23T07:17:02;12.30;80.20
38488;DHT22;57384;51.986;4.458;2023-03-23T07:19:47;12.30;80.20
38488;DHT22;57384;51.986;4.458;2023-03-23T07:22:31;12.30;80.20
38488;DHT22;57384;51.986;4.458;2023-03-23T07:25:16;12.30;80.20
38488;DHT22;57384;51.986;4.458;2023-03-23T07:28:01;12.30;80.20
38488;DHT22;57384;51.986;4.458;2023-03-23T07:30:45;12.30;80.10
38488;DHT22;57384;51.986;4.458;2023-03-23T07:33:29;12.30;80.10
38488;DHT22;57384;51.986;4.458;2023-03-23T07:36:13;12.30;80.10
38488;DHT22;57384;51.986;4.458;2023-03-23T07:38:58;12.30;80.10
38488;DHT22;57384;51.986;4.458;2023-03-23T07:41:42;12.30;80.20
38488;DHT22;57384;51.986;4.458;2023-03-23T07:44:26;12.30;80.20
38488;DHT22;57384;51.986;4.458;2023-03-23T07:47:10;12.30;80.20
38488;DHT22;57384;51.986;4.458;2023-03-23T07:49:55;12.40;80.20
38488;DHT22;57384;51.986;4.458;2023-03-23T07:52:39;12.40;80.10
38488;DHT22;57384;51.986;4.458;2023-03-23T07:55:24;12.40;80.10
38488;DHT22;57384;51.986;4.458;2023-03-23T07:58:08;12.50;80.00
38488;DHT22;57384;51.986;4.458;2023-03-23T08:00:52;12.50;80.00
38488;DHT22;57384;51.986;4.458;2023-03-23T08:03:36;12.50;79.90
38488;DHT22;57384;51.986;4.458;2023-03-23T08:06:21;12.50;79.90
38488;DHT22;57384;51.986;4.458;2023-03-23T08:09:05;12.50;79.90
38488;DHT22;57384;51.986;4.458;2023-03-23T08:11:49;12.60;79.90
38488;DHT22;57384;51.986;4.458;2023-03-23T08:14:33;12.60;79.90
38488;DHT22;57384;51.986;4.458;2023-03-23T08:17:17;12.60;79.80
38488;DHT22;57384;51.986;4.458;2023-03-23T08:20:02;12.70;79.80
38488;DHT22;57384;51.986;4.458;2023-03-23T08:22:51;12.80;79.80
38488;DHT22;57384;51.986;4.458;2023-03-23T08:25:36;12.80;79.70
38488;DHT22;57384;51.986;4.458;2023-03-23T08:28:20;12.80;79.70
38488;DHT22;57384;51.986;4.458;2023-03-23T08:31:08;13.00;79.70
38488;DHT22;57384;51.986;4.458;2023-03-23T08:33:53;13.00;79.60
38488;DHT22;57384;51.986;4.458;2023-03-23T08:36:37;13.10;79.50
38488;DHT22;57384;51.986;4.458;2023-03-23T08:39:21;13.10;79.50
38488;DHT22;57384;51.986;4.458;2023-03-23T08:42:05;13.20;79.50
38488;DHT22;57384;51.986;4.458;2023-03-23T08:44:50;13.30;79.40
38488;DHT22;57384;51.986;4.458;2023-03-23T08:47:34;13.40;79.30
38488;DHT22;57384;51.986;4.458;2023-03-23T08:50:20;13.50;79.20
38488;DHT22;57384;51.986;4.458;2023-03-23T08:53:04;13.70;79.10
38488;DHT22;57384;51.986;4.458;2023-03-23T08:55:48;13.80;78.90
38488;DHT22;57384;51.986;4.458;2023-03-23T08:58:33;13.90;78.80
38488;DHT22;57384;51.986;4.458;2023-03-23T09:01:17;14.00;78.70
38488;DHT22;57384;51.986;4.458;2023-03-23T09:04:02;14.10;78.60
38488;DHT22;57384;51.986;4.458;2023-03-23T09:06:46;14.30;78.50
38488;DHT22;57384;51.986;4.458;2023-03-23T09:09:30;14.40;78.40
38488;DHT22;57384;51.986;4.458;2023-03-23T09:12:14;14.60;78.40
38488;DHT22;57384;51.986;4.458;2023-03-23T09:14:58;14.70;78.20
38488;DHT22;57384;51.986;4.458;2023-03-23T09:17:47;14.80;78.10
38488;DHT22;57384;51.986;4.458;2023-03-23T09:20:31;15.00;78.00
38488;DHT22;57384;51.986;4.458;2023-03-23T09:23:18;15.20;77.90
38488;DHT22;57384;51.986;4.458;2023-03-23T09:26:02;15.30;77.80
38488;DHT22;57384;51.986;4.458;2023-03-23T09:28:47;15.40;77.80
38488;DHT22;57384;51.986;4.458;2023-03-23T09:31:31;15.60;77.80
38488;DHT22;57384;51.986;4.458;2023-03-23T09:34:15;15.70;77.80
38488;DHT22;57384;51.986;4.458;2023-03-23T09:37:00;15.80;77.70
38488;DHT22;57384;51.986;4.458;2023-03-23T09:39:44;16.00;77.80
38488;DHT22;57384;51.986;4.458;2023-03-23T09:45:22;16.20;77.90
38488;DHT22;57384;51.986;4.458;2023-03-23T09:50:54;16.30;77.90
38488;DHT22;57384;51.986;4.458;2023-03-23T09:53:41;16.40;78.00
38488;DHT22;57384;51.986;4.458;2023-03-23T09:56:26;16.50;78.10
38488;DHT22;57384;51.986;4.458;2023-03-23T10:02:23;16.60;78.20
38488;DHT22;57384;51.986;4.458;2023-03-23T10:05:20;16.60;78.20
38488;DHT22;57384;51.986;4.458;2023-03-23T10:08:16;16.70;78.30
38488;DHT22;57384;51.986;4.458;2023-03-23T10:11:06;16.80;78.40
38488;DHT22;57384;51.986;4.458;2023-03-23T10:16:50;16.90;78.40
38488;DHT22;57384;51.986;4.458;2023-03-23T10:25:34;17.10;78.50
38488;DHT22;57384;51.986;4.458;2023-03-23T10:28:20;17.20;78.50
38488;DHT22;57384;51.986;4.458;2023-03-23T10:31:04;17.20;78.50
38488;DHT22;57384;51.986;4.458;2023-03-23T10:33:50;17.30;78.50
38488;DHT22;57384;51.986;4.458;2023-03-23T10:36:36;17.40;78.40
38488;DHT22;57384;51.986;4.458;2023-03-23T10:39:21;17.50;78.40
38488;DHT22;57384;51.986;4.458;2023-03-23T10:42:05;17.60;78.30
38488;DHT22;57384;51.986;4.458;2023-03-23T10:44:51;17.70;78.20
38488;DHT22;57384;51.986;4.458;2023-03-23T10:47:37;17.80;78.10
38488;DHT22;57384;51.986;4.458;2023-03-23T10:50:23;17.90;78.00
38488;DHT22;57384;51.986;4.458;2023-03-23T10:53:26;18.10;77.90
38488;DHT22;57384;51.986;4.458;2023-03-23T10:56:22;18.20;77.90
38488;DHT22;57384;51.986;4.458;2023-03-23T11:01:58;18.30;77.90
38488;DHT22;57384;51.986;4.458;2023-03-23T11:04:54;18.40;77.90
38488;DHT22;57384;51.986;4.458;2023-03-23T11:07:39;18.50;78.00
38488;DHT22;57384;51.986;4.458;2023-03-23T11:10:28;18.50;77.90
38488;DHT22;57384;51.986;4.458;2023-03-23T11:13:17;18.60;77.90
38488;DHT22;57384;51.986;4.458;2023-03-23T11:16:02;18.70;78.00
38488;DHT22;57384;51.986;4.458;2023-03-23T11:18:46;18.70;77.90
38488;DHT22;57384;51.986;4.458;2023-03-23T11:21:30;18.80;77.90
38488;DHT22;57384;51.986;4.458;2023-03-23T11:24:15;18.90;77.90
38488;DHT22;57384;51.986;4.458;2023-03-23T11:27:00;19.00;77.80
38488;DHT22;57384;51.986;4.458;2023-03-23T11:32:37;19.20;77.60
38488;DHT22;57384;51.986;4.458;2023-03-23T11:35:26;19.40;77.50
38488;DHT22;57384;51.986;4.458;2023-03-23T11:38:15;19.50;77.50
38488;DHT22;57384;51.986;4.458;2023-03-23T11:41:00;19.60;77.40
38488;DHT22;57384;51.986;4.458;2023-03-23T11:43:45;19.70;77.40
38488;DHT22;57384;51.986;4.458;2023-03-23T11:55:20;20.20;77.10
38488;DHT22;57384;51.986;4.458;2023-03-23T11:58:12;20.40;76.90
38488;DHT22;57384;51.986;4.458;2023-03-23T12:00:57;20.40;76.90
38488;DHT22;57384;51.986;4.458;2023-03-23T12:23:29;21.10;76.80
38488;DHT22;57384;51.986;4.458;2023-03-23T12:26:24;21.10;76.70
38488;DHT22;57384;51.986;4.458;2023-03-23T12:35:27;21.10;76.70
38488;DHT22;57384;51.986;4.458;2023-03-23T12:38:11;21.20;76.80
38488;DHT22;57384;51.986;4.458;2023-03-23T12:43:51;21.10;76.70
38488;DHT22;57384;51.986;4.458;2023-03-23T12:52:35;21.30;76.60
38488;DHT22;57384;51.986;4.458;2023-03-23T12:58:09;21.30;76.30
38488;DHT22;57384;51.986;4.458;2023-03-23T13:00:58;21.40;76.30
38488;DHT22;57384;51.986;4.458;2023-03-23T13:03:49;21.40;76.10
38488;DHT22;57384;51.986;4.458;2023-03-23T13:12:39;21.40;76.70
38488;DHT22;57384;51.986;4.458;2023-03-23T13:15:44;21.40;75.90
38488;DHT22;57384;51.986;4.458;2023-03-23T13:18:40;21.50;75.80
38488;DHT22;57384;51.986;4.458;2023-03-23T13:21:29;21.50;75.60
38488;DHT22;57384;51.986;4.458;2023-03-23T13:24:15;21.60;75.40
38488;DHT22;57384;51.986;4.458;2023-03-23T13:27:01;21.70;75.40
38488;DHT22;57384;51.986;4.458;2023-03-23T13:29:46;21.70;75.30
38488;DHT22;57384;51.986;4.458;2023-03-23T13:35:16;21.70;75.30
38488;DHT22;57384;51.986;4.458;2023-03-23T13:38:00;21.70;75.30
38488;DHT22;57384;51.986;4.458;2023-03-23T13:40:45;21.70;75.30
38488;DHT22;57384;51.986;4.458;2023-03-23T13:43:31;21.70;75.30
38488;DHT22;57384;51.986;4.458;2023-03-23T13:49:04;21.60;75.20
38488;DHT22;57384;51.986;4.458;2023-03-23T13:52:06;21.60;75.10
38488;DHT22;57384;51.986;4.458;2023-03-23T13:54:51;21.50;75.10
38488;DHT22;57384;51.986;4.458;2023-03-23T14:03:26;21.30;75.00
38488;DHT22;57384;51.986;4.458;2023-03-23T14:06:20;21.20;75.00
38488;DHT22;57384;51.986;4.458;2023-03-23T14:12:26;21.10;75.10
38488;DHT22;57384;51.986;4.458;2023-03-23T14:15:11;21.00;75.10
38488;DHT22;57384;51.986;4.458;2023-03-23T14:17:56;21.00;75.10
38488;DHT22;57384;51.986;4.458;2023-03-23T14:20:40;20.90;75.10
38488;DHT22;57384;51.986;4.458;2023-03-23T14:23:25;20.80;75.10
38488;DHT22;57384;51.986;4.458;2023-03-23T14:26:12;20.80;75.10
38488;DHT22;57384;51.986;4.458;2023-03-23T14:28:58;20.70;75.00
38488;DHT22;57384;51.986;4.458;2023-03-23T14:31:43;20.70;75.10
38488;DHT22;57384;51.986;4.458;2023-03-23T14:34:28;20.60;75.00
38488;DHT22;57384;51.986;4.458;2023-03-23T14:37:16;20.60;75.00
38488;DHT22;57384;51.986;4.458;2023-03-23T14:40:00;20.50;75.00
38488;DHT22;57384;51.986;4.458;2023-03-23T14:42:45;20.50;75.00
38488;DHT22;57384;51.986;4.458;2023-03-23T14:45:30;20.50;75.00
38488;DHT22;57384;51.986;4.458;2023-03-23T14:48:15;20.40;75.00
38488;DHT22;57384;51.986;4.458;2023-03-23T14:51:01;20.40;75.30
38488;DHT22;57384;51.986;4.458;2023-03-23T14:53:46;20.30;75.00
38488;DHT22;57384;51.986;4.458;2023-03-23T14:56:32;20.30;75.10
38488;DHT22;57384;51.986;4.458;2023-03-23T14:59:16;20.20;75.10
38488;DHT22;57384;51.986;4.458;2023-03-23T15:02:01;20.20;75.20
38488;DHT22;57384;51.986;4.458;2023-03-23T15:04:45;20.20;75.20
38488;DHT22;57384;51.986;4.458;2023-03-23T15:07:33;20.10;75.10
38488;DHT22;57384;51.986;4.458;2023-03-23T15:10:18;20.10;75.20
38488;DHT22;57384;51.986;4.458;2023-03-23T15:13:02;20.00;75.10
38488;DHT22;57384;51.986;4.458;2023-03-23T15:15:47;20.00;75.20
38488;DHT22;57384;51.986;4.458;2023-03-23T15:18:35;19.90;75.20
38488;DHT22;57384;51.986;4.458;2023-03-23T15:21:18;19.90;75.30
38488;DHT22;57384;51.986;4.458;2023-03-23T15:23:45;19.80;75.30
38488;DHT22;57384;51.986;4.458;2023-03-23T15:26:25;19.80;75.20
38488;DHT22;57384;51.986;4.458;2023-03-23T15:29:01;19.70;75.20
38488;DHT22;57384;51.986;4.458;2023-03-23T15:31:32;19.70;75.20
38488;DHT22;57384;51.986;4.458;2023-03-23T15:33:59;19.60;75.10
38488;DHT22;57384;51.986;4.458;2023-03-23T15:36:33;19.50;75.00
38488;DHT22;57384;51.986;4.458;2023-03-23T15:39:05;19.60;75.70
38488;DHT22;57384;51.986;4.458;2023-03-23T15:41:32;19.50;75.20
38488;DHT22;57384;51.986;4.458;2023-03-23T15:44:08;19.40;75.10
38488;DHT22;57384;51.986;4.458;2023-03-23T15:46:50;19.40;75.20
38488;DHT22;57384;51.986;4.458;2023-03-23T15:49:17;19.30;75.10
38488;DHT22;57384;51.986;4.458;2023-03-23T15:51:47;19.20;75.10
38488;DHT22;57384;51.986;4.458;2023-03-23T15:54:14;19.20;75.10
38488;DHT22;57384;51.986;4.458;2023-03-23T15:56:42;19.10;75.10
38488;DHT22;57384;51.986;4.458;2023-03-23T15:59:09;19.10;75.10
38488;DHT22;57384;51.986;4.458;2023-03-23T16:01:39;19.00;75.10
38488;DHT22;57384;51.986;4.458;2023-03-23T16:04:07;18.90;75.00
38488;DHT22;57384;51.986;4.458;2023-03-23T16:06:35;18.90;75.00
38488;DHT22;57384;51.986;4.458;2023-03-23T16:09:02;18.80;75.00
38488;DHT22;57384;51.986;4.458;2023-03-23T16:11:29;18.70;75.30
38488;DHT22;57384;51.986;4.458;2023-03-23T16:14:01;18.80;75.00
38488;DHT22;57384;51.986;4.458;2023-03-23T16:16:33;18.60;74.90
38488;DHT22;57384;51.986;4.458;2023-03-23T16:18:59;18.60;74.90
38488;DHT22;57384;51.986;4.458;2023-03-23T16:21:26;18.50;74.90
38488;DHT22;57384;51.986;4.458;2023-03-23T16:23:53;18.50;75.00
38488;DHT22;57384;51.986;4.458;2023-03-23T16:26:22;18.40;74.90
38488;DHT22;57384;51.986;4.458;2023-03-23T16:28:51;18.40;74.90
38488;DHT22;57384;51.986;4.458;2023-03-23T16:31:17;18.30;74.90
38488;DHT22;57384;51.986;4.458;2023-03-23T16:33:44;18.30;74.90
38488;DHT22;57384;51.986;4.458;2023-03-23T16:36:11;18.20;74.90
38488;DHT22;57384;51.986;4.458;2023-03-23T16:38:38;18.20;74.90
38488;DHT22;57384;51.986;4.458;2023-03-23T16:41:05;18.10;74.90
38488;DHT22;57384;51.986;4.458;2023-03-23T16:43:32;18.10;75.00
38488;DHT22;57384;51.986;4.458;2023-03-23T16:45:58;18.00;74.90
38488;DHT22;57384;51.986;4.458;2023-03-23T16:48:27;18.00;74.90
38488;DHT22;57384;51.986;4.458;2023-03-23T16:50:55;18.00;74.50
38488;DHT22;57384;51.986;4.458;2023-03-23T16:53:22;17.90;74.90
38488;DHT22;57384;51.986;4.458;2023-03-23T16:55:52;17.90;74.90
38488;DHT22;57384;51.986;4.458;2023-03-23T16:58:26;17.90;74.90
38488;DHT22;57384;51.986;4.458;2023-03-23T17:00:56;17.80;74.90
38488;DHT22;57384;51.986;4.458;2023-03-23T17:03:22;17.70;74.90
38488;DHT22;57384;51.986;4.458;2023-03-23T17:05:51;17.70;74.90
38488;DHT22;57384;51.986;4.458;2023-03-23T17:08:18;17.60;74.90
38488;DHT22;57384;51.986;4.458;2023-03-23T17:10:45;17.60;75.00
38488;DHT22;57384;51.986;4.458;2023-03-23T17:13:12;17.60;75.00
38488;DHT22;57384;51.986;4.458;2023-03-23T17:15:40;17.50;75.00
38488;DHT22;57384;51.986;4.458;2023-03-23T17:18:06;17.50;75.00
38488;DHT22;57384;51.986;4.458;2023-03-23T17:20:33;17.50;75.10
38488;DHT22;57384;51.986;4.458;2023-03-23T17:23:00;17.40;75.00
38488;DHT22;57384;51.986;4.458;2023-03-23T17:25:27;17.40;75.10
38488;DHT22;57384;51.986;4.458;2023-03-23T17:28:00;17.40;75.10
38488;DHT22;57384;51.986;4.458;2023-03-23T17:30:27;17.30;75.00
38488;DHT22;57384;51.986;4.458;2023-03-23T17:32:53;17.30;75.00
38488;DHT22;57384;51.986;4.458;2023-03-23T17:35:20;17.20;75.00
38488;DHT22;57384;51.986;4.458;2023-03-23T17:37:47;17.10;75.00
38488;DHT22;57384;51.986;4.458;2023-03-23T17:40:13;17.10;75.10
38488;DHT22;57384;51.986;4.458;2023-03-23T17:42:40;17.10;75.10
38488;DHT22;57384;51.986;4.458;2023-03-23T17:47:45;17.00;75.20
38488;DHT22;57384;51.986;4.458;2023-03-23T17:50:12;16.90;75.20
38488;DHT22;57384;51.986;4.458;2023-03-23T17:52:39;16.90;75.20
38488;DHT22;57384;51.986;4.458;2023-03-23T17:55:06;16.80;75.20
38488;DHT22;57384;51.986;4.458;2023-03-23T17:57:33;16.80;75.30
38488;DHT22;57384;51.986;4.458;2023-03-23T18:00:07;16.80;75.30
38488;DHT22;57384;51.986;4.458;2023-03-23T18:02:35;16.70;75.20
38488;DHT22;57384;51.986;4.458;2023-03-23T18:05:01;16.70;75.20
38488;DHT22;57384;51.986;4.458;2023-03-23T18:07:28;16.70;75.30
38488;DHT22;57384;51.986;4.458;2023-03-23T18:09:58;16.70;75.30
38488;DHT22;57384;51.986;4.458;2023-03-23T18:12:25;16.60;75.30
38488;DHT22;57384;51.986;4.458;2023-03-23T18:14:54;16.50;75.20
38488;DHT22;57384;51.986;4.458;2023-03-23T18:17:21;16.50;75.30
38488;DHT22;57384;51.986;4.458;2023-03-23T18:19:47;16.50;75.20
38488;DHT22;57384;51.986;4.458;2023-03-23T18:22:14;16.50;75.30
38488;DHT22;57384;51.986;4.458;2023-03-23T18:24:40;16.40;75.20
38488;DHT22;57384;51.986;4.458;2023-03-23T18:27:07;16.40;75.30
38488;DHT22;57384;51.986;4.458;2023-03-23T18:29:34;16.30;75.20
38488;DHT22;57384;51.986;4.458;2023-03-23T18:32:00;16.30;75.30
38488;DHT22;57384;51.986;4.458;2023-03-23T18:34:27;16.30;75.30
38488;DHT22;57384;51.986;4.458;2023-03-23T18:36:53;16.30;75.30
38488;DHT22;57384;51.986;4.458;2023-03-23T18:39:20;16.20;75.30
38488;DHT22;57384;51.986;4.458;2023-03-23T18:41:46;16.10;75.30
38488;DHT22;57384;51.986;4.458;2023-03-23T18:44:16;16.10;75.30
38488;DHT22;57384;51.986;4.458;2023-03-23T18:46:45;16.10;75.30
38488;DHT22;57384;51.986;4.458;2023-03-23T18:49:12;16.00;75.30
38488;DHT22;57384;51.986;4.458;2023-03-23T18:51:39;16.00;75.40
38488;DHT22;57384;51.986;4.458;2023-03-23T18:54:05;15.90;75.40